sensor_id;sensor_type;location;lat;lon;timestamp;P1;durP1;ratioP1;P2;durP2;ratioP2
70233;SDS011;57622;42.630;23.378;2022-08-14T00:02:22;16.25;;;10.68;;
70233;SDS011;57622;42.630;23.378;2022-08-14T00:04:48;15.57;;;10.18;;
70233;SDS011;57622;42.630;23.378;2022-08-14T00:07:13;17.48;;;10.48;;
70233;SDS011;57622;42.630;23.378;2022-08-14T00:09:39;16.05;;;10.05;;
70233;SDS011;57622;42.630;23.378;2022-08-14T00:12:04;16.48;;;10.70;;
70233;SDS011;57622;42.630;23.378;2022-08-14T00:14:30;14.57;;;10.40;;
70233;SDS011;57622;42.630;23.378;2022-08-14T00:16:56;14.55;;;9.82;;
70233;SDS011;57622;42.630;23.378;2022-08-14T00:19:22;14.50;;;9.70;;
70233;SDS011;57622;42.630;23.378;2022-08-14T00:21:48;15.13;;;8.50;;
70233;SDS011;57622;42.630;23.378;2022-08-14T00:24:15;13.65;;;8.98;;
70233;SDS011;57622;42.630;23.378;2022-08-14T00:26:41;14.18;;;8.40;;
70233;SDS011;57622;42.630;23.378;2022-08-14T00:29:07;12.95;;;8.95;;
70233;SDS011;57622;42.630;23.378;2022-08-14T00:31:32;14.88;;;8.95;;
70233;SDS011;57622;42.630;23.378;2022-08-14T00:33:58;13.10;;;8.60;;
70233;SDS011;57622;42.630;23.378;2022-08-14T00:36:23;12.75;;;8.35;;
70233;SDS011;57622;42.630;23.378;2022-08-14T00:38:50;14.20;;;9.32;;
70233;SDS011;57622;42.630;23.378;2022-08-14T00:41:15;13.98;;;8.68;;
70233;SDS011;57622;42.630;23.378;2022-08-14T00:43:41;16.48;;;8.93;;
70233;SDS011;57622;42.630;23.378;2022-08-14T00:46:09;11.73;;;8.17;;
70233;SDS011;57622;42.630;23.378;2022-08-14T00:48:36;14.20;;;8.00;;
70233;SDS011;57622;42.630;23.378;2022-08-14T00:51:05;11.23;;;7.75;;
70233;SDS011;57622;42.630;23.378;2022-08-14T00:53:32;14.40;;;7.97;;
70233;SDS011;57622;42.630;23.378;2022-08-14T00:55:58;14.52;;;8.38;;
70233;SDS011;57622;42.630;23.378;2022-08-14T00:58:23;13.63;;;8.27;;
70233;SDS011;57622;42.630;23.378;2022-08-14T01:00:55;12.35;;;8.18;;
70233;SDS011;57622;42.630;23.378;2022-08-14T01:03:26;12.73;;;7.78;;
70233;SDS011;57622;42.630;23.378;2022-08-14T01:05:56;13.05;;;8.45;;
70233;SDS011;57622;42.630;23.378;2022-08-14T01:08:26;13.30;;;8.23;;
70233;SDS011;57622;42.630;23.378;2022-08-14T01:10:54;14.65;;;8.05;;
70233;SDS011;57622;42.630;23.378;2022-08-14T01:13:22;14.55;;;8.32;;
70233;SDS011;57622;42.630;23.378;2022-08-14T01:15:52;14.98;;;8.80;;
70233;SDS011;57622;42.630;23.378;2022-08-14T01:18:20;11.77;;;8.13;;
70233;SDS011;57622;42.630;23.378;2022-08-14T01:21:06;13.85;;;8.85;;
70233;SDS011;57622;42.630;23.378;2022-08-14T01:26:17;13.95;;;8.52;;
70233;SDS011;57622;42.630;23.378;2022-08-14T01:28:45;15.25;;;9.15;;
70233;SDS011;57622;42.630;23.378;2022-08-14T01:31:13;18.08;;;8.30;;
70233;SDS011;57622;42.630;23.378;2022-08-14T01:33:42;13.93;;;8.50;;
70233;SDS011;57622;42.630;23.378;2022-08-14T01:36:12;15.57;;;8.18;;
70233;SDS011;57622;42.630;23.378;2022-08-14T01:38:41;15.85;;;9.40;;
70233;SDS011;57622;42.630;23.378;2022-08-14T01:41:09;20.48;;;8.63;;
70233;SDS011;57622;42.630;23.378;2022-08-14T01:46:33;14.27;;;8.93;;
70233;SDS011;57622;42.630;23.378;2022-08-14T01:49:03;13.70;;;9.68;;
70233;SDS011;57622;42.630;23.378;2022-08-14T01:51:34;15.95;;;9.80;;
70233;SDS011;57622;42.630;23.378;2022-08-14T01:54:03;16.20;;;9.82;;
70233;SDS011;57622;42.630;23.378;2022-08-14T01:56:32;19.48;;;10.10;;
70233;SDS011;57622;42.630;23.378;2022-08-14T01:59:02;17.98;;;10.07;;
70233;SDS011;57622;42.630;23.378;2022-08-14T02:01:50;13.15;;;8.23;;
70233;SDS011;57622;42.630;23.378;2022-08-14T02:04:18;13.30;;;8.35;;
70233;SDS011;57622;42.630;23.378;2022-08-14T02:06:44;12.52;;;7.93;;
70233;SDS011;57622;42.630;23.378;2022-08-14T02:09:11;11.20;;;7.20;;
70233;SDS011;57622;42.630;23.378;2022-08-14T02:11:37;15.57;;;7.60;;
70233;SDS011;57622;42.630;23.378;2022-08-14T02:14:03;11.32;;;7.85;;
70233;SDS011;57622;42.630;23.378;2022-08-14T02:16:32;15.35;;;8.07;;
70233;SDS011;57622;42.630;23.378;2022-08-14T02:19:04;14.07;;;7.85;;
70233;SDS011;57622;42.630;23.378;2022-08-14T02:21:32;13.15;;;8.10;;
70233;SDS011;57622;42.630;23.378;2022-08-14T02:24:00;12.57;;;7.75;;
70233;SDS011;57622;42.630;23.378;2022-08-14T02:26:27;13.95;;;8.15;;
70233;SDS011;57622;42.630;23.378;2022-08-14T02:28:59;16.27;;;7.68;;
70233;SDS011;57622;42.630;23.378;2022-08-14T02:31:27;11.50;;;7.85;;
70233;SDS011;57622;42.630;23.378;2022-08-14T02:33:56;12.25;;;7.38;;
70233;SDS011;57622;42.630;23.378;2022-08-14T02:36:21;12.73;;;8.00;;
70233;SDS011;57622;42.630;23.378;2022-08-14T02:38:47;11.18;;;7.53;;
70233;SDS011;57622;42.630;23.378;2022-08-14T02:41:13;11.57;;;7.50;;
70233;SDS011;57622;42.630;23.378;2022-08-14T02:43:40;17.02;;;10.82;;
70233;SDS011;57622;42.630;23.378;2022-08-14T02:46:06;16.20;;;10.30;;
70233;SDS011;57622;42.630;23.378;2022-08-14T02:48:34;17.73;;;9.73;;
70233;SDS011;57622;42.630;23.378;2022-08-14T02:51:04;15.48;;;10.32;;
70233;SDS011;57622;42.630;23.378;2022-08-14T02:53:31;16.13;;;9.53;;
70233;SDS011;57622;42.630;23.378;2022-08-14T02:55:58;19.05;;;9.50;;
70233;SDS011;57622;42.630;23.378;2022-08-14T02:58:24;15.45;;;9.57;;
70233;SDS011;57622;42.630;23.378;2022-08-14T03:00:51;15.45;;;9.88;;
70233;SDS011;57622;42.630;23.378;2022-08-14T03:03:17;15.55;;;10.32;;
70233;SDS011;57622;42.630;23.378;2022-08-14T03:05:46;16.40;;;9.98;;
70233;SDS011;57622;42.630;23.378;2022-08-14T03:08:15;16.67;;;10.38;;
70233;SDS011;57622;42.630;23.378;2022-08-14T03:10:41;16.50;;;10.70;;
70233;SDS011;57622;42.630;23.378;2022-08-14T03:13:07;20.58;;;14.10;;
70233;SDS011;57622;42.630;23.378;2022-08-14T03:15:34;26.13;;;14.57;;
70233;SDS011;57622;42.630;23.378;2022-08-14T03:18:11;25.42;;;16.15;;
70233;SDS011;57622;42.630;23.378;2022-08-14T03:20:38;24.50;;;15.55;;
70233;SDS011;57622;42.630;23.378;2022-08-14T03:23:04;27.98;;;16.83;;
70233;SDS011;57622;42.630;23.378;2022-08-14T03:25:30;21.58;;;14.52;;
70233;SDS011;57622;42.630;23.378;2022-08-14T03:27:57;23.85;;;15.35;;
70233;SDS011;57622;42.630;23.378;2022-08-14T03:30:27;24.17;;;15.63;;
70233;SDS011;57622;42.630;23.378;2022-08-14T03:32:55;24.98;;;14.35;;
70233;SDS011;57622;42.630;23.378;2022-08-14T03:35:21;20.73;;;14.35;;
70233;SDS011;57622;42.630;23.378;2022-08-14T03:37:47;23.63;;;13.40;;
70233;SDS011;57622;42.630;23.378;2022-08-14T03:40:17;18.00;;;13.02;;
70233;SDS011;57622;42.630;23.378;2022-08-14T03:42:44;18.95;;;13.32;;
70233;SDS011;57622;42.630;23.378;2022-08-14T03:45:10;20.30;;;13.15;;
70233;SDS011;57622;42.630;23.378;2022-08-14T03:47:36;20.10;;;12.10;;
70233;SDS011;57622;42.630;23.378;2022-08-14T03:50:08;19.02;;;12.52;;
70233;SDS011;57622;42.630;23.378;2022-08-14T03:52:38;18.25;;;12.02;;
70233;SDS011;57622;42.630;23.378;2022-08-14T03:55:05;17.20;;;12.15;;
70233;SDS011;57622;42.630;23.378;2022-08-14T03:57:33;20.47;;;12.67;;
70233;SDS011;57622;42.630;23.378;2022-08-14T04:00:00;20.55;;;12.93;;
70233;SDS011;57622;42.630;23.378;2022-08-14T04:02:28;19.27;;;13.50;;
70233;SDS011;57622;42.630;23.378;2022-08-14T04:04:54;17.48;;;12.52;;
70233;SDS011;57622;42.630;23.378;2022-08-14T04:07:19;18.38;;;12.95;;
70233;SDS011;57622;42.630;23.378;2022-08-14T04:09:46;21.23;;;13.88;;
70233;SDS011;57622;42.630;23.378;2022-08-14T04:12:12;22.33;;;14.75;;
70233;SDS011;57622;42.630;23.378;2022-08-14T04:14:37;21.55;;;13.73;;
70233;SDS011;57622;42.630;23.378;2022-08-14T04:17:03;20.80;;;14.82;;
70233;SDS011;57622;42.630;23.378;2022-08-14T04:19:29;20.92;;;14.15;;
70233;SDS011;57622;42.630;23.378;2022-08-14T04:21:54;25.52;;;14.68;;
70233;SDS011;57622;42.630;23.378;2022-08-14T04:24:20;22.13;;;14.30;;
70233;SDS011;57622;42.630;23.378;2022-08-14T04:26:45;26.75;;;15.23;;
70233;SDS011;57622;42.630;23.378;2022-08-14T04:29:11;23.00;;;14.73;;
70233;SDS011;57622;42.630;23.378;2022-08-14T04:31:38;23.33;;;15.18;;
70233;SDS011;57622;42.630;23.378;2022-08-14T04:34:04;23.95;;;16.48;;
70233;SDS011;57622;42.630;23.378;2022-08-14T04:36:30;24.83;;;16.20;;
70233;SDS011;57622;42.630;23.378;2022-08-14T04:38:56;25.48;;;17.85;;
70233;SDS011;57622;42.630;23.378;2022-08-14T04:41:41;27.70;;;18.08;;
70233;SDS011;57622;42.630;23.378;2022-08-14T04:44:25;28.95;;;17.02;;
70233;SDS011;57622;42.630;23.378;2022-08-14T04:46:50;26.38;;;18.52;;
70233;SDS011;57622;42.630;23.378;2022-08-14T04:49:34;26.08;;;17.63;;
70233;SDS011;57622;42.630;23.378;2022-08-14T04:52:00;26.33;;;17.42;;
70233;SDS011;57622;42.630;23.378;2022-08-14T04:54:28;27.48;;;17.17;;
70233;SDS011;57622;42.630;23.378;2022-08-14T04:56:54;27.73;;;17.83;;
70233;SDS011;57622;42.630;23.378;2022-08-14T04:59:20;27.25;;;17.92;;
70233;SDS011;57622;42.630;23.378;2022-08-14T05:01:46;23.27;;;16.08;;
70233;SDS011;57622;42.630;23.378;2022-08-14T05:04:11;24.77;;;16.80;;
70233;SDS011;57622;42.630;23.378;2022-08-14T05:06:37;24.48;;;16.92;;
70233;SDS011;57622;42.630;23.378;2022-08-14T05:09:04;24.23;;;16.58;;
70233;SDS011;57622;42.630;23.378;2022-08-14T05:11:30;30.58;;;16.00;;
70233;SDS011;57622;42.630;23.378;2022-08-14T05:13:58;24.48;;;15.68;;
70233;SDS011;57622;42.630;23.378;2022-08-14T05:16:25;25.03;;;15.93;;
70233;SDS011;57622;42.630;23.378;2022-08-14T05:18:53;20.95;;;14.63;;
70233;SDS011;57622;42.630;23.378;2022-08-14T05:21:19;22.60;;;14.77;;
70233;SDS011;57622;42.630;23.378;2022-08-14T05:23:45;22.30;;;14.00;;
70233;SDS011;57622;42.630;23.378;2022-08-14T05:26:11;20.08;;;14.55;;
70233;SDS011;57622;42.630;23.378;2022-08-14T05:28:41;20.73;;;15.18;;
70233;SDS011;57622;42.630;23.378;2022-08-14T05:31:09;19.10;;;14.38;;
70233;SDS011;57622;42.630;23.378;2022-08-14T05:33:35;17.27;;;12.98;;
70233;SDS011;57622;42.630;23.378;2022-08-14T05:36:06;17.35;;;12.75;;
70233;SDS011;57622;42.630;23.378;2022-08-14T05:38:37;20.40;;;12.23;;
70233;SDS011;57622;42.630;23.378;2022-08-14T05:41:11;17.45;;;12.18;;
70233;SDS011;57622;42.630;23.378;2022-08-14T05:43:39;18.58;;;12.05;;
70233;SDS011;57622;42.630;23.378;2022-08-14T05:46:06;17.65;;;12.07;;
70233;SDS011;57622;42.630;23.378;2022-08-14T05:48:34;18.92;;;11.90;;
70233;SDS011;57622;42.630;23.378;2022-08-14T05:50:59;17.65;;;11.55;;
70233;SDS011;57622;42.630;23.378;2022-08-14T05:53:25;16.27;;;11.90;;
70233;SDS011;57622;42.630;23.378;2022-08-14T05:55:52;17.30;;;11.50;;
70233;SDS011;57622;42.630;23.378;2022-08-14T05:58:19;17.73;;;11.93;;
70233;SDS011;57622;42.630;23.378;2022-08-14T06:00:45;18.27;;;11.80;;
70233;SDS011;57622;42.630;23.378;2022-08-14T06:03:12;20.48;;;12.27;;
70233;SDS011;57622;42.630;23.378;2022-08-14T06:05:40;19.85;;;13.38;;
70233;SDS011;57622;42.630;23.378;2022-08-14T06:08:29;21.58;;;14.35;;
70233;SDS011;57622;42.630;23.378;2022-08-14T06:10:56;21.02;;;14.60;;
70233;SDS011;57622;42.630;23.378;2022-08-14T06:13:27;18.38;;;13.15;;
70233;SDS011;57622;42.630;23.378;2022-08-14T06:16:06;22.45;;;14.30;;
70233;SDS011;57622;42.630;23.378;2022-08-14T06:18:31;20.92;;;15.23;;
70233;SDS011;57622;42.630;23.378;2022-08-14T06:20:57;24.10;;;15.68;;
70233;SDS011;57622;42.630;23.378;2022-08-14T06:23:23;21.48;;;15.27;;
70233;SDS011;57622;42.630;23.378;2022-08-14T06:25:49;22.40;;;15.40;;
70233;SDS011;57622;42.630;23.378;2022-08-14T06:28:15;21.30;;;15.25;;
70233;SDS011;57622;42.630;23.378;2022-08-14T06:30:41;23.83;;;14.90;;
70233;SDS011;57622;42.630;23.378;2022-08-14T06:33:07;21.88;;;14.73;;
70233;SDS011;57622;42.630;23.378;2022-08-14T06:35:32;20.50;;;14.57;;
70233;SDS011;57622;42.630;23.378;2022-08-14T06:37:58;23.23;;;15.13;;
70233;SDS011;57622;42.630;23.378;2022-08-14T06:43:04;21.17;;;15.10;;
70233;SDS011;57622;42.630;23.378;2022-08-14T06:45:31;24.10;;;14.38;;
70233;SDS011;57622;42.630;23.378;2022-08-14T06:47:57;21.30;;;14.98;;
70233;SDS011;57622;42.630;23.378;2022-08-14T06:50:25;21.55;;;14.50;;
70233;SDS011;57622;42.630;23.378;2022-08-14T06:52:52;21.40;;;15.07;;
70233;SDS011;57622;42.630;23.378;2022-08-14T06:55:18;23.27;;;14.85;;
70233;SDS011;57622;42.630;23.378;2022-08-14T06:57:47;19.67;;;14.27;;
70233;SDS011;57622;42.630;23.378;2022-08-14T07:00:18;21.58;;;13.55;;
70233;SDS011;57622;42.630;23.378;2022-08-14T07:02:46;20.70;;;14.60;;
70233;SDS011;57622;42.630;23.378;2022-08-14T07:05:30;21.90;;;14.60;;
70233;SDS011;57622;42.630;23.378;2022-08-14T07:08:12;19.80;;;14.55;;
70233;SDS011;57622;42.630;23.378;2022-08-14T07:10:38;20.55;;;14.55;;
70233;SDS011;57622;42.630;23.378;2022-08-14T07:13:05;17.98;;;13.48;;
70233;SDS011;57622;42.630;23.378;2022-08-14T07:15:31;20.80;;;14.75;;
70233;SDS011;57622;42.630;23.378;2022-08-14T07:17:57;21.88;;;14.55;;
70233;SDS011;57622;42.630;23.378;2022-08-14T07:20:23;19.15;;;14.43;;
70233;SDS011;57622;42.630;23.378;2022-08-14T07:22:49;21.63;;;14.70;;
70233;SDS011;57622;42.630;23.378;2022-08-14T07:25:15;20.75;;;15.38;;
70233;SDS011;57622;42.630;23.378;2022-08-14T07:27:40;21.02;;;15.07;;
70233;SDS011;57622;42.630;23.378;2022-08-14T07:30:06;26.52;;;15.30;;
70233;SDS011;57622;42.630;23.378;2022-08-14T07:32:32;23.33;;;16.40;;
70233;SDS011;57622;42.630;23.378;2022-08-14T07:34:58;23.13;;;16.10;;
70233;SDS011;57622;42.630;23.378;2022-08-14T07:37:23;22.33;;;15.73;;
70233;SDS011;57622;42.630;23.378;2022-08-14T07:39:49;26.10;;;17.15;;
70233;SDS011;57622;42.630;23.378;2022-08-14T07:42:15;26.38;;;16.45;;
70233;SDS011;57622;42.630;23.378;2022-08-14T07:44:41;21.27;;;15.02;;
70233;SDS011;57622;42.630;23.378;2022-08-14T07:47:06;24.73;;;15.32;;
70233;SDS011;57622;42.630;23.378;2022-08-14T07:49:32;24.67;;;16.15;;
70233;SDS011;57622;42.630;23.378;2022-08-14T07:51:58;21.63;;;15.07;;
70233;SDS011;57622;42.630;23.378;2022-08-14T07:54:25;22.67;;;15.50;;
70233;SDS011;57622;42.630;23.378;2022-08-14T07:56:51;21.75;;;14.95;;
70233;SDS011;57622;42.630;23.378;2022-08-14T07:59:16;20.92;;;14.45;;
70233;SDS011;57622;42.630;23.378;2022-08-14T08:01:42;22.45;;;15.80;;
70233;SDS011;57622;42.630;23.378;2022-08-14T08:04:08;23.17;;;15.43;;
70233;SDS011;57622;42.630;23.378;2022-08-14T08:06:35;21.67;;;15.43;;
70233;SDS011;57622;42.630;23.378;2022-08-14T08:09:02;23.63;;;15.32;;
70233;SDS011;57622;42.630;23.378;2022-08-14T08:11:32;28.70;;;15.35;;
70233;SDS011;57622;42.630;23.378;2022-08-14T08:13:59;22.45;;;15.88;;
70233;SDS011;57622;42.630;23.378;2022-08-14T08:16:30;22.45;;;14.40;;
70233;SDS011;57622;42.630;23.378;2022-08-14T08:18:57;20.33;;;14.57;;
70233;SDS011;57622;42.630;23.378;2022-08-14T08:21:23;22.85;;;14.35;;
70233;SDS011;57622;42.630;23.378;2022-08-14T08:23:50;21.00;;;14.48;;
70233;SDS011;57622;42.630;23.378;2022-08-14T08:26:17;22.27;;;14.73;;
70233;SDS011;57622;42.630;23.378;2022-08-14T08:28:42;19.92;;;13.15;;
70233;SDS011;57622;42.630;23.378;2022-08-14T08:31:08;18.75;;;11.98;;
70233;SDS011;57622;42.630;23.378;2022-08-14T08:33:35;16.75;;;11.30;;
70233;SDS011;57622;42.630;23.378;2022-08-14T08:36:06;17.52;;;12.60;;
70233;SDS011;57622;42.630;23.378;2022-08-14T08:38:35;19.25;;;13.95;;
70233;SDS011;57622;42.630;23.378;2022-08-14T08:41:01;18.30;;;12.68;;
70233;SDS011;57622;42.630;23.378;2022-08-14T08:43:31;20.83;;;13.52;;
70233;SDS011;57622;42.630;23.378;2022-08-14T08:45:59;17.08;;;13.20;;
70233;SDS011;57622;42.630;23.378;2022-08-14T08:48:27;16.23;;;12.02;;
70233;SDS011;57622;42.630;23.378;2022-08-14T08:50:57;16.38;;;11.15;;
70233;SDS011;57622;42.630;23.378;2022-08-14T08:53:29;16.45;;;11.05;;
70233;SDS011;57622;42.630;23.378;2022-08-14T08:55:56;15.70;;;10.93;;
70233;SDS011;57622;42.630;23.378;2022-08-14T08:58:22;18.23;;;10.77;;
70233;SDS011;57622;42.630;23.378;2022-08-14T09:00:50;15.02;;;10.02;;
70233;SDS011;57622;42.630;23.378;2022-08-14T09:03:18;15.75;;;10.35;;
70233;SDS011;57622;42.630;23.378;2022-08-14T09:05:50;15.93;;;10.43;;
70233;SDS011;57622;42.630;23.378;2022-08-14T09:10:44;15.38;;;10.27;;
70233;SDS011;57622;42.630;23.378;2022-08-14T09:13:11;16.10;;;9.95;;
70233;SDS011;57622;42.630;23.378;2022-08-14T09:15:40;17.58;;;9.52;;
70233;SDS011;57622;42.630;23.378;2022-08-14T09:18:07;12.98;;;8.07;;
70233;SDS011;57622;42.630;23.378;2022-08-14T09:20:36;11.65;;;7.05;;
70233;SDS011;57622;42.630;23.378;2022-08-14T09:23:03;12.05;;;6.85;;
70233;SDS011;57622;42.630;23.378;2022-08-14T09:25:29;10.90;;;6.65;;
70233;SDS011;57622;42.630;23.378;2022-08-14T09:27:55;10.77;;;6.38;;
70233;SDS011;57622;42.630;23.378;2022-08-14T09:30:20;16.60;;;6.47;;
70233;SDS011;57622;42.630;23.378;2022-08-14T09:35:29;10.07;;;6.45;;
70233;SDS011;57622;42.630;23.378;2022-08-14T09:38:09;9.73;;;6.30;;
70233;SDS011;57622;42.630;23.378;2022-08-14T09:41:12;12.27;;;6.20;;
70233;SDS011;57622;42.630;23.378;2022-08-14T09:44:02;10.07;;;6.30;;
70233;SDS011;57622;42.630;23.378;2022-08-14T09:46:35;11.15;;;6.70;;
70233;SDS011;57622;42.630;23.378;2022-08-14T09:49:02;9.98;;;6.40;;
70233;SDS011;57622;42.630;23.378;2022-08-14T09:51:29;14.25;;;7.03;;
70233;SDS011;57622;42.630;23.378;2022-08-14T09:54:02;13.05;;;6.97;;
70233;SDS011;57622;42.630;23.378;2022-08-14T09:56:45;10.63;;;6.20;;
70233;SDS011;57622;42.630;23.378;2022-08-14T09:59:13;11.82;;;6.10;;
70233;SDS011;57622;42.630;23.378;2022-08-14T10:01:40;10.73;;;5.85;;
70233;SDS011;57622;42.630;23.378;2022-08-14T10:04:17;9.48;;;6.20;;
70233;SDS011;57622;42.630;23.378;2022-08-14T10:06:45;10.38;;;6.00;;
70233;SDS011;57622;42.630;23.378;2022-08-14T10:09:11;9.98;;;6.05;;
70233;SDS011;57622;42.630;23.378;2022-08-14T10:11:38;11.02;;;6.57;;
70233;SDS011;57622;42.630;23.378;2022-08-14T10:14:14;10.15;;;6.28;;
70233;SDS011;57622;42.630;23.378;2022-08-14T10:16:54;10.25;;;6.63;;
70233;SDS011;57622;42.630;23.378;2022-08-14T10:19:24;12.85;;;6.30;;
70233;SDS011;57622;42.630;23.378;2022-08-14T10:22:03;10.15;;;6.95;;
70233;SDS011;57622;42.630;23.378;2022-08-14T10:24:43;11.15;;;7.05;;
70233;SDS011;57622;42.630;23.378;2022-08-14T10:27:20;13.38;;;6.70;;
70233;SDS011;57622;42.630;23.378;2022-08-14T10:32:25;10.23;;;6.40;;
70233;SDS011;57622;42.630;23.378;2022-08-14T10:35:01;11.30;;;6.32;;
70233;SDS011;57622;42.630;23.378;2022-08-14T10:37:50;11.40;;;7.03;;
70233;SDS011;57622;42.630;23.378;2022-08-14T10:40:27;12.25;;;7.40;;
70233;SDS011;57622;42.630;23.378;2022-08-14T10:42:54;11.60;;;7.50;;
70233;SDS011;57622;42.630;23.378;2022-08-14T10:45:21;11.48;;;7.25;;
70233;SDS011;57622;42.630;23.378;2022-08-14T10:47:50;10.93;;;7.25;;
70233;SDS011;57622;42.630;23.378;2022-08-14T10:50:16;10.85;;;6.50;;
70233;SDS011;57622;42.630;23.378;2022-08-14T10:52:56;11.13;;;6.97;;
70233;SDS011;57622;42.630;23.378;2022-08-14T10:55:29;10.63;;;6.03;;
70233;SDS011;57622;42.630;23.378;2022-08-14T10:57:56;9.75;;;6.30;;
70233;SDS011;57622;42.630;23.378;2022-08-14T11:00:22;11.70;;;5.85;;
70233;SDS011;57622;42.630;23.378;2022-08-14T11:03:35;9.90;;;6.13;;
70233;SDS011;57622;42.630;23.378;2022-08-14T11:05:45;9.68;;;5.95;;
70233;SDS011;57622;42.630;23.378;2022-08-14T11:13:31;10.57;;;6.50;;
70233;SDS011;57622;42.630;23.378;2022-08-14T11:15:57;9.80;;;6.20;;
70233;SDS011;57622;42.630;23.378;2022-08-14T11:18:24;12.80;;;6.33;;
70233;SDS011;57622;42.630;23.378;2022-08-14T11:20:53;11.88;;;7.30;;
70233;SDS011;57622;42.630;23.378;2022-08-14T11:23:20;10.55;;;7.53;;
70233;SDS011;57622;42.630;23.378;2022-08-14T11:25:49;15.25;;;7.53;;
70233;SDS011;57622;42.630;23.378;2022-08-14T11:28:15;11.95;;;6.78;;
70233;SDS011;57622;42.630;23.378;2022-08-14T11:30:48;12.75;;;7.63;;
70233;SDS011;57622;42.630;23.378;2022-08-14T11:33:14;11.50;;;7.10;;
70233;SDS011;57622;42.630;23.378;2022-08-14T11:35:40;11.23;;;7.10;;
70233;SDS011;57622;42.630;23.378;2022-08-14T11:38:07;9.60;;;6.60;;
70233;SDS011;57622;42.630;23.378;2022-08-14T11:40:36;10.50;;;6.47;;
70233;SDS011;57622;42.630;23.378;2022-08-14T11:43:05;10.77;;;6.90;;
70233;SDS011;57622;42.630;23.378;2022-08-14T11:45:33;11.05;;;6.78;;
70233;SDS011;57622;42.630;23.378;2022-08-14T11:48:15;10.30;;;7.07;;
70233;SDS011;57622;42.630;23.378;2022-08-14T11:50:44;10.85;;;7.10;;
70233;SDS011;57622;42.630;23.378;2022-08-14T11:53:17;11.55;;;6.88;;
70233;SDS011;57622;42.630;23.378;2022-08-14T11:55:58;10.63;;;6.60;;
70233;SDS011;57622;42.630;23.378;2022-08-14T11:58:33;11.73;;;6.80;;
70233;SDS011;57622;42.630;23.378;2022-08-14T12:01:01;10.60;;;6.20;;
70233;SDS011;57622;42.630;23.378;2022-08-14T12:03:40;11.07;;;6.53;;
70233;SDS011;57622;42.630;23.378;2022-08-14T12:06:14;10.38;;;5.90;;
70233;SDS011;57622;42.630;23.378;2022-08-14T12:08:42;9.88;;;6.57;;
70233;SDS011;57622;42.630;23.378;2022-08-14T12:11:10;12.05;;;7.13;;
70233;SDS011;57622;42.630;23.378;2022-08-14T12:13:37;11.18;;;7.07;;
70233;SDS011;57622;42.630;23.378;2022-08-14T12:16:05;10.75;;;7.07;;
70233;SDS011;57622;42.630;23.378;2022-08-14T12:18:40;10.45;;;7.03;;
70233;SDS011;57622;42.630;23.378;2022-08-14T12:23:46;9.93;;;6.68;;
70233;SDS011;57622;42.630;23.378;2022-08-14T12:26:33;10.38;;;6.55;;
70233;SDS011;57622;42.630;23.378;2022-08-14T12:29:07;11.05;;;7.25;;
70233;SDS011;57622;42.630;23.378;2022-08-14T12:31:38;11.23;;;7.10;;
70233;SDS011;57622;42.630;23.378;2022-08-14T12:34:07;9.63;;;6.80;;
70233;SDS011;57622;42.630;23.378;2022-08-14T12:36:33;10.57;;;6.78;;
70233;SDS011;57622;42.630;23.378;2022-08-14T12:39:00;11.07;;;6.95;;
70233;SDS011;57622;42.630;23.378;2022-08-14T12:41:31;10.70;;;7.07;;
70233;SDS011;57622;42.630;23.378;2022-08-14T12:44:02;10.52;;;6.35;;
70233;SDS011;57622;42.630;23.378;2022-08-14T12:46:39;11.18;;;6.20;;
70233;SDS011;57622;42.630;23.378;2022-08-14T12:49:09;11.15;;;7.05;;
70233;SDS011;57622;42.630;23.378;2022-08-14T12:51:37;13.80;;;10.23;;
70233;SDS011;57622;42.630;23.378;2022-08-14T12:54:17;23.38;;;17.88;;
70233;SDS011;57622;42.630;23.378;2022-08-14T12:56:44;12.45;;;7.13;;
70233;SDS011;57622;42.630;23.378;2022-08-14T12:59:11;10.85;;;6.85;;
70233;SDS011;57622;42.630;23.378;2022-08-14T13:01:38;9.93;;;6.32;;
70233;SDS011;57622;42.630;23.378;2022-08-14T13:04:14;11.10;;;6.38;;
70233;SDS011;57622;42.630;23.378;2022-08-14T13:06:44;11.20;;;7.30;;
70233;SDS011;57622;42.630;23.378;2022-08-14T13:09:12;11.85;;;7.93;;
70233;SDS011;57622;42.630;23.378;2022-08-14T13:11:49;11.95;;;7.88;;
70233;SDS011;57622;42.630;23.378;2022-08-14T13:14:22;12.20;;;7.82;;
70233;SDS011;57622;42.630;23.378;2022-08-14T13:16:53;11.20;;;7.70;;
70233;SDS011;57622;42.630;23.378;2022-08-14T13:19:20;12.60;;;9.10;;
70233;SDS011;57622;42.630;23.378;2022-08-14T13:21:47;12.75;;;9.07;;
70233;SDS011;57622;42.630;23.378;2022-08-14T13:26:43;13.35;;;8.55;;
70233;SDS011;57622;42.630;23.378;2022-08-14T13:29:15;13.50;;;9.27;;
70233;SDS011;57622;42.630;23.378;2022-08-14T13:31:43;12.88;;;8.98;;
70233;SDS011;57622;42.630;23.378;2022-08-14T13:34:13;14.32;;;8.82;;
70233;SDS011;57622;42.630;23.378;2022-08-14T13:36:39;13.80;;;9.50;;
70233;SDS011;57622;42.630;23.378;2022-08-14T13:39:05;14.68;;;9.73;;
70233;SDS011;57622;42.630;23.378;2022-08-14T13:41:32;14.00;;;9.20;;
70233;SDS011;57622;42.630;23.378;2022-08-14T13:43:58;13.30;;;8.25;;
70233;SDS011;57622;42.630;23.378;2022-08-14T13:46:24;13.18;;;8.18;;
70233;SDS011;57622;42.630;23.378;2022-08-14T13:48:50;11.00;;;7.53;;
70233;SDS011;57622;42.630;23.378;2022-08-14T13:51:15;13.73;;;8.20;;
70233;SDS011;57622;42.630;23.378;2022-08-14T13:53:46;12.82;;;8.25;;
70233;SDS011;57622;42.630;23.378;2022-08-14T13:56:13;13.18;;;8.05;;
70233;SDS011;57622;42.630;23.378;2022-08-14T13:58:43;11.30;;;7.88;;
70233;SDS011;57622;42.630;23.378;2022-08-14T14:01:14;18.63;;;14.35;;
70233;SDS011;57622;42.630;23.378;2022-08-14T14:03:43;13.07;;;7.90;;
70233;SDS011;57622;42.630;23.378;2022-08-14T14:06:12;12.25;;;7.88;;
70233;SDS011;57622;42.630;23.378;2022-08-14T14:08:42;11.38;;;8.07;;
70233;SDS011;57622;42.630;23.378;2022-08-14T14:11:11;12.75;;;8.48;;
70233;SDS011;57622;42.630;23.378;2022-08-14T14:13:37;12.02;;;8.10;;
70233;SDS011;57622;42.630;23.378;2022-08-14T14:16:03;13.55;;;9.10;;
70233;SDS011;57622;42.630;23.378;2022-08-14T14:18:33;13.55;;;8.85;;
70233;SDS011;57622;42.630;23.378;2022-08-14T14:20:59;14.02;;;9.32;;
70233;SDS011;57622;42.630;23.378;2022-08-14T14:23:26;14.05;;;8.68;;
70233;SDS011;57622;42.630;23.378;2022-08-14T14:25:52;14.65;;;9.10;;
70233;SDS011;57622;42.630;23.378;2022-08-14T14:28:18;14.07;;;8.43;;
70233;SDS011;57622;42.630;23.378;2022-08-14T14:30:45;12.60;;;8.40;;
70233;SDS011;57622;42.630;23.378;2022-08-14T14:33:12;12.75;;;7.97;;
70233;SDS011;57622;42.630;23.378;2022-08-14T14:35:41;12.25;;;7.70;;
70233;SDS011;57622;42.630;23.378;2022-08-14T14:38:11;9.80;;;6.13;;
70233;SDS011;57622;42.630;23.378;2022-08-14T14:40:39;13.48;;;8.63;;
70233;SDS011;57622;42.630;23.378;2022-08-14T14:43:05;11.57;;;6.30;;
70233;SDS011;57622;42.630;23.378;2022-08-14T14:45:34;12.85;;;8.25;;
70233;SDS011;57622;42.630;23.378;2022-08-14T14:48:01;13.02;;;6.93;;
70233;SDS011;57622;42.630;23.378;2022-08-14T14:50:31;12.73;;;5.88;;
70233;SDS011;57622;42.630;23.378;2022-08-14T14:52:57;10.50;;;5.55;;